Time;durP1;ratioP1;P1;durP2;ratioP2;P2;SDS_P1;SDS_P2;PMS_P1;PMS_P2;Temp;Humidity;BMP_temperature;BMP_pressure;BME280_temperature;BME280_humidity;BME280_pressure;Samples;Min_cycle;Max_cycle;Signal;HPM_P1;HPM_P2
2023/09/12 00:00:43;;;;;;;0.20;0.20;;;;;;;;;;5071906;28;20060;-71
2023/09/12 00:03:08;;;;;;;0.10;0.10;;;;;;;;;;5071880;28;20039;-70
2023/09/12 00:05:34;;;;;;;0.20;0.20;;;;;;;;;;5075096;28;20484;-70
2023/09/12 00:08:00;;;;;;;0.15;0.15;;;;;;;;;;5075472;28;20376;-70
2023/09/12 00:10:25;;;;;;;0.20;0.20;;;;;;;;;;5078462;28;20039;-70
2023/09/12 00:12:51;;;;;;;0.10;0.10;;;;;;;;;;5077434;28;20080;-70
2023/09/12 00:15:16;;;;;;;0.20;0.20;;;;;;;;;;5060362;28;20033;-72
2023/09/12 00:17:42;;;;;;;0.10;0.10;;;;;;;;;;5058608;28;20040;-72
2023/09/12 00:20:08;;;;;;;0.20;0.20;;;;;;;;;;5075304;28;20392;-71
2023/09/12 00:22:33;;;;;;;0.20;0.20;;;;;;;;;;5075163;28;20032;-72
2023/09/12 00:24:59;;;;;;;0.20;0.20;;;;;;;;;;5075661;28;20384;-70
2023/09/12 00:27:25;;;;;;;0.20;0.20;;;;;;;;;;5057608;28;20072;-70
2023/09/12 00:29:50;;;;;;;0.20;0.20;;;;;;;;;;5075362;28;20036;-70
2023/09/12 00:32:16;;;;;;;1.00;0.68;;;;;;;;;;5075242;28;20464;-70
2023/09/12 00:34:42;;;;;;;1.05;1.05;;;;;;;;;;5053537;28;20029;-70
2023/09/12 00:37:07;;;;;;;0.20;0.20;;;;;;;;;;5054855;28;20041;-70
2023/09/12 00:39:33;;;;;;;0.20;0.20;;;;;;;;;;5054879;28;20112;-70
2023/09/12 00:41:59;;;;;;;0.20;0.20;;;;;;;;;;5054973;28;20131;-70
2023/09/12 00:44:24;;;;;;;0.10;0.10;;;;;;;;;;5054920;28;20039;-69
2023/09/12 00:46:51;;;;;;;0.20;0.20;;;;;;;;;;5053759;28;20036;-70
2023/09/12 00:49:17;;;;;;;0.20;0.20;;;;;;;;;;5054791;28;20108;-70
2023/09/12 00:51:43;;;;;;;0.75;0.52;;;;;;;;;;5054767;28;20025;-69
2023/09/12 00:54:09;;;;;;;0.28;0.28;;;;;;;;;;5054915;28;20480;-70
2023/09/12 00:56:35;;;;;;;0.10;0.10;;;;;;;;;;5053682;28;20060;-70
2023/09/12 00:59:01;;;;;;;0.10;0.10;;;;;;;;;;5054791;28;20029;-70
2023/09/12 01:01:27;;;;;;;0.20;0.20;;;;;;;;;;5053478;28;20037;-69
2023/09/12 01:03:54;;;;;;;0.20;0.20;;;;;;;;;;5036836;28;20051;-69
2023/09/12 01:06:21;;;;;;;0.22;0.22;;;;;;;;;;5054466;28;20082;-69
2023/09/12 01:08:47;;;;;;;0.30;0.30;;;;;;;;;;5036648;28;20033;-69
2023/09/12 01:11:14;;;;;;;0.40;0.40;;;;;;;;;;5054298;28;20068;-69
2023/09/12 01:13:39;;;;;;;0.20;0.20;;;;;;;;;;5054459;28;20388;-69
2023/09/12 01:16:05;;;;;;;0.17;0.17;;;;;;;;;;5054312;28;20037;-70
2023/09/12 01:18:33;;;;;;;1.10;0.65;;;;;;;;;;5071271;28;20032;-69
2023/09/12 01:21:15;;;;;;;0.63;0.43;;;;;;;;;;5074288;28;20075;-69
2023/09/12 01:23:50;;;;;;;0.43;0.43;;;;;;;;;;5039339;28;20032;-69
2023/09/12 01:26:34;;;;;;;0.20;0.20;;;;;;;;;;5073754;28;20041;-69
2023/09/12 01:29:00;;;;;;;0.20;0.20;;;;;;;;;;5073084;28;20046;-70
2023/09/12 01:31:27;;;;;;;0.30;0.30;;;;;;;;;;5056227;28;20064;-70
2023/09/12 01:33:57;;;;;;;0.20;0.20;;;;;;;;;;5057857;28;20084;-69
2023/09/12 01:36:23;;;;;;;0.20;0.20;;;;;;;;;;5057718;28;20453;-70
2023/09/12 01:38:48;;;;;;;0.20;0.20;;;;;;;;;;5074818;28;20067;-69
2023/09/12 01:41:14;;;;;;;0.22;0.22;;;;;;;;;;5074095;28;20041;-71
2023/09/12 01:43:41;;;;;;;0.15;0.15;;;;;;;;;;5055882;28;20490;-70
2023/09/12 01:46:07;;;;;;;0.20;0.20;;;;;;;;;;5056247;28;20062;-71
2023/09/12 01:48:34;;;;;;;0.20;0.20;;;;;;;;;;5074083;28;20067;-71
2023/09/12 01:51:03;;;;;;;0.10;0.10;;;;;;;;;;5073668;28;20445;-71
2023/09/12 01:53:30;;;;;;;0.10;0.10;;;;;;;;;;5055603;28;20055;-71
2023/09/12 01:55:57;;;;;;;0.20;0.20;;;;;;;;;;5073117;28;20054;-71
2023/09/12 01:58:24;;;;;;;0.15;0.15;;;;;;;;;;5055508;28;20556;-71
2023/09/12 02:00:50;;;;;;;0.15;0.15;;;;;;;;;;5073707;28;20028;-71
2023/09/12 02:03:16;;;;;;;0.20;0.20;;;;;;;;;;5055677;28;20043;-70
2023/09/12 02:05:42;;;;;;;0.10;0.10;;;;;;;;;;5055899;28;20048;-70
2023/09/12 02:08:07;;;;;;;0.20;0.20;;;;;;;;;;5073404;28;20027;-69
2023/09/12 02:10:34;;;;;;;0.13;0.13;;;;;;;;;;5073896;28;20134;-70
2023/09/12 02:13:01;;;;;;;0.13;0.13;;;;;;;;;;5073136;28;20032;-70
2023/09/12 02:15:26;;;;;;;0.20;0.20;;;;;;;;;;5038996;28;20384;-70
2023/09/12 02:17:52;;;;;;;0.20;0.20;;;;;;;;;;5055733;28;20044;-69
2023/09/12 02:20:19;;;;;;;0.10;0.10;;;;;;;;;;5073464;28;20033;-70
2023/09/12 02:22:45;;;;;;;0.20;0.20;;;;;;;;;;5072892;28;20036;-70
2023/09/12 02:25:10;;;;;;;0.20;0.20;;;;;;;;;;5055080;28;20078;-69
2023/09/12 02:27:36;;;;;;;0.20;0.20;;;;;;;;;;5072607;28;20056;-70
2023/09/12 02:30:04;;;;;;;0.20;0.20;;;;;;;;;;5055683;28;20028;-70
2023/09/12 02:32:30;;;;;;;0.10;0.10;;;;;;;;;;5073338;28;20029;-70
2023/09/12 02:34:57;;;;;;;0.20;0.20;;;;;;;;;;5073296;28;20060;-70
2023/09/12 02:37:23;;;;;;;0.20;0.20;;;;;;;;;;5072941;28;20124;-70
2023/09/12 02:39:49;;;;;;;0.13;0.13;;;;;;;;;;5072846;28;20072;-70
2023/09/12 02:42:14;;;;;;;0.20;0.20;;;;;;;;;;5055024;28;20090;-70
2023/09/12 02:44:40;;;;;;;0.20;0.20;;;;;;;;;;5055270;28;20039;-69
2023/09/12 02:47:06;;;;;;;0.10;0.10;;;;;;;;;;5054256;28;20115;-70
2023/09/12 02:49:31;;;;;;;0.20;0.20;;;;;;;;;;5054867;28;20036;-70
2023/09/12 02:51:57;;;;;;;0.13;0.13;;;;;;;;;;5073046;28;20036;-69
2023/09/12 02:54:23;;;;;;;0.20;0.20;;;;;;;;;;5072322;28;20115;-70
2023/09/12 02:56:48;;;;;;;0.20;0.20;;;;;;;;;;5054724;28;20609;-69
2023/09/12 02:59:14;;;;;;;0.20;0.20;;;;;;;;;;5073066;28;20025;-69
2023/09/12 03:01:39;;;;;;;0.20;0.20;;;;;;;;;;5071850;28;20070;-72
2023/09/12 03:04:05;;;;;;;0.20;0.20;;;;;;;;;;5049917;28;20032;-70
2023/09/12 03:06:31;;;;;;;0.20;0.20;;;;;;;;;;5068483;28;20043;-71
2023/09/12 03:08:56;;;;;;;0.20;0.20;;;;;;;;;;5050955;28;20387;-71
2023/09/12 03:11:22;;;;;;;0.10;0.10;;;;;;;;;;5050793;28;20361;-71
2023/09/12 03:13:48;;;;;;;0.20;0.20;;;;;;;;;;5050982;28;20161;-72
2023/09/12 03:16:14;;;;;;;0.20;0.20;;;;;;;;;;5068444;28;20098;-71
2023/09/12 03:18:40;;;;;;;0.10;0.10;;;;;;;;;;5034355;28;20435;-70
2023/09/12 03:21:06;;;;;;;0.10;0.10;;;;;;;;;;5050734;28;20388;-71
2023/09/12 03:23:35;;;;;;;0.10;0.10;;;;;;;;;;5068741;28;20043;-71
2023/09/12 03:26:04;;;;;;;0.20;0.20;;;;;;;;;;5068189;28;20487;-71
2023/09/12 03:28:30;;;;;;;0.20;0.20;;;;;;;;;;5051028;28;20028;-70
2023/09/12 03:31:07;;;;;;;0.10;0.10;;;;;;;;;;5070252;28;20112;-71
2023/09/12 03:33:32;;;;;;;0.20;0.20;;;;;;;;;;5052619;28;20097;-72
2023/09/12 03:35:58;;;;;;;0.20;0.20;;;;;;;;;;5050832;28;20036;-70
2023/09/12 03:38:24;;;;;;;0.28;0.28;;;;;;;;;;5068520;28;20102;-70
2023/09/12 03:40:49;;;;;;;0.20;0.20;;;;;;;;;;5071901;28;20035;-74
2023/09/12 03:43:15;;;;;;;0.10;0.10;;;;;;;;;;5054257;28;20056;-69
2023/09/12 03:45:40;;;;;;;0.20;0.20;;;;;;;;;;5071669;28;20036;-70
2023/09/12 03:48:07;;;;;;;0.17;0.17;;;;;;;;;;5053508;28;20103;-71
2023/09/12 03:50:32;;;;;;;0.20;0.20;;;;;;;;;;5070501;28;20384;-70
2023/09/12 03:52:58;;;;;;;0.13;0.13;;;;;;;;;;5071599;28;20201;-70
2023/09/12 03:55:23;;;;;;;0.20;0.20;;;;;;;;;;5054096;28;20040;-70
2023/09/12 03:57:49;;;;;;;0.10;0.10;;;;;;;;;;5053857;28;20033;-70
2023/09/12 04:00:15;;;;;;;0.20;0.20;;;;;;;;;;5070921;28;20388;-70
2023/09/12 04:02:43;;;;;;;0.10;0.10;;;;;;;;;;5037050;28;20040;-70
2023/09/12 04:05:10;;;;;;;0.20;0.20;;;;;;;;;;5053592;28;20039;-70
2023/09/12 04:07:36;;;;;;;0.20;0.20;;;;;;;;;;5053826;28;20040;-70
2023/09/12 04:10:01;;;;;;;0.20;0.20;;;;;;;;;;5071744;28;20028;-73
2023/09/12 04:12:27;;;;;;;0.20;0.20;;;;;;;;;;5053127;28;20507;-70
2023/09/12 04:14:52;;;;;;;0.17;0.17;;;;;;;;;;5035099;28;20028;-70
2023/09/12 04:17:18;;;;;;;0.20;0.20;;;;;;;;;;5053679;28;20036;-70
2023/09/12 04:19:44;;;;;;;0.20;0.20;;;;;;;;;;5071296;28;20119;-70
2023/09/12 04:22:09;;;;;;;0.20;0.20;;;;;;;;;;5070713;28;20433;-71
2023/09/12 04:24:35;;;;;;;0.20;0.20;;;;;;;;;;5053614;28;20032;-70
2023/09/12 04:27:00;;;;;;;0.20;0.20;;;;;;;;;;5053289;28;20071;-70
2023/09/12 04:29:27;;;;;;;0.20;0.20;;;;;;;;;;5069828;28;20277;-70
2023/09/12 04:31:58;;;;;;;0.20;0.20;;;;;;;;;;5080498;28;20454;-70
2023/09/12 04:34:25;;;;;;;0.20;0.20;;;;;;;;;;5052592;28;20448;-70
2023/09/12 04:36:51;;;;;;;0.10;0.10;;;;;;;;;;5070789;28;20048;-70
2023/09/12 04:39:17;;;;;;;0.13;0.13;;;;;;;;;;5035201;28;20083;-71
2023/09/12 04:41:43;;;;;;;0.20;0.20;;;;;;;;;;5069678;28;20423;-70
2023/09/12 04:44:08;;;;;;;0.20;0.20;;;;;;;;;;5070472;28;20067;-69
2023/09/12 04:46:34;;;;;;;0.10;0.10;;;;;;;;;;5069985;28;20123;-70
2023/09/12 04:49:00;;;;;;;0.20;0.20;;;;;;;;;;5033255;28;20039;-70
2023/09/12 04:51:27;;;;;;;0.20;0.20;;;;;;;;;;5050312;28;20086;-70
2023/09/12 04:53:52;;;;;;;0.20;0.20;;;;;;;;;;5032607;28;20032;-70
2023/09/12 04:56:18;;;;;;;0.15;0.15;;;;;;;;;;5032473;28;20064;-73
2023/09/12 04:58:44;;;;;;;0.20;0.20;;;;;;;;;;5068932;28;20437;-71
2023/09/12 05:01:09;;;;;;;0.20;0.20;;;;;;;;;;5050516;28;20488;-70
2023/09/12 05:03:35;;;;;;;0.10;0.10;;;;;;;;;;5051110;28;20047;-70
2023/09/12 05:06:01;;;;;;;0.10;0.10;;;;;;;;;;5068974;28;21118;-71
2023/09/12 05:08:27;;;;;;;0.10;0.10;;;;;;;;;;5069069;28;20475;-71
2023/09/12 05:10:52;;;;;;;0.10;0.10;;;;;;;;;;5050296;28;20445;-72
2023/09/12 05:13:18;;;;;;;0.20;0.20;;;;;;;;;;5037004;28;20024;-71
2023/09/12 05:15:44;;;;;;;0.10;0.10;;;;;;;;;;5048053;28;20032;-73
2023/09/12 05:18:10;;;;;;;0.22;0.22;;;;;;;;;;5051887;28;20035;-71
2023/09/12 05:20:36;;;;;;;0.10;0.10;;;;;;;;;;5070091;28;20051;-70
2023/09/12 05:23:02;;;;;;;0.17;0.17;;;;;;;;;;5052423;28;20040;-70
2023/09/12 05:25:28;;;;;;;0.20;0.20;;;;;;;;;;5070472;28;20750;-71
2023/09/12 05:27:54;;;;;;;0.10;0.10;;;;;;;;;;5051709;28;20029;-72
2023/09/12 05:30:21;;;;;;;0.20;0.20;;;;;;;;;;5052335;28;20044;-72
2023/09/12 05:32:47;;;;;;;0.20;0.20;;;;;;;;;;5056334;28;20396;-71
2023/09/12 05:35:12;;;;;;;0.20;0.20;;;;;;;;;;5049445;28;20024;-72
2023/09/12 05:37:38;;;;;;;0.20;0.20;;;;;;;;;;5060790;28;20032;-71
2023/09/12 05:40:04;;;;;;;0.17;0.17;;;;;;;;;;5048360;28;20037;-71
2023/09/12 05:42:29;;;;;;;0.20;0.20;;;;;;;;;;5034893;28;20388;-71
2023/09/12 05:44:56;;;;;;;0.20;0.20;;;;;;;;;;5051417;28;20130;-70
2023/09/12 05:47:22;;;;;;;0.20;0.20;;;;;;;;;;5047534;28;20032;-71
2023/09/12 05:49:48;;;;;;;0.20;0.20;;;;;;;;;;5044810;28;20040;-71
2023/09/12 05:52:14;;;;;;;0.10;0.10;;;;;;;;;;5070297;28;20048;-71
2023/09/12 05:54:43;;;;;;;0.20;0.20;;;;;;;;;;5049884;28;20059;-71
2023/09/12 05:57:09;;;;;;;0.20;0.20;;;;;;;;;;5031131;28;20025;-70
2023/09/12 05:59:39;;;;;;;0.17;0.17;;;;;;;;;;5063725;28;20137;-72
2023/09/12 06:02:06;;;;;;;0.20;0.20;;;;;;;;;;5038834;28;20033;-71
2023/09/12 06:04:32;;;;;;;0.20;0.20;;;;;;;;;;5058723;28;20032;-71
2023/09/12 06:06:58;;;;;;;0.20;0.20;;;;;;;;;;5028290;28;20424;-71
2023/09/12 06:09:23;;;;;;;0.20;0.20;;;;;;;;;;5067236;28;20024;-70
2023/09/12 06:11:49;;;;;;;0.17;0.17;;;;;;;;;;5068799;28;20430;-71
2023/09/12 06:14:15;;;;;;;0.20;0.20;;;;;;;;;;5066390;28;20020;-71
2023/09/12 06:16:40;;;;;;;0.20;0.20;;;;;;;;;;5068996;28;20082;-71
2023/09/12 06:19:06;;;;;;;0.20;0.20;;;;;;;;;;5068790;28;20068;-70
2023/09/12 06:21:31;;;;;;;0.10;0.10;;;;;;;;;;5059460;28;20031;-70
2023/09/12 06:24:11;;;;;;;0.20;0.20;;;;;;;;;;5058724;28;20039;-70
2023/09/12 06:26:37;;;;;;;6.93;2.55;;;;;;;;;;5066929;28;20035;-69
2023/09/12 06:29:02;;;;;;;0.88;0.85;;;;;;;;;;5068635;28;21033;-70
2023/09/12 06:31:28;;;;;;;0.40;0.40;;;;;;;;;;5050291;28;20023;-71
2023/09/12 06:33:54;;;;;;;0.32;0.32;;;;;;;;;;5069050;28;20396;-71
2023/09/12 06:36:19;;;;;;;0.20;0.20;;;;;;;;;;5068751;28;20483;-70
2023/09/12 06:38:45;;;;;;;0.20;0.20;;;;;;;;;;5057785;28;20032;-71
2023/09/12 06:41:10;;;;;;;0.43;0.40;;;;;;;;;;5058114;28;20024;-71
2023/09/12 06:43:36;;;;;;;0.10;0.10;;;;;;;;;;5059605;28;20042;-70
2023/09/12 06:46:01;;;;;;;1.08;1.02;;;;;;;;;;5058056;28;20090;-70
2023/09/12 06:48:27;;;;;;;0.20;0.20;;;;;;;;;;5040305;28;20507;-70
2023/09/12 06:50:55;;;;;;;0.20;0.20;;;;;;;;;;5059048;28;21425;-70
2023/09/12 06:53:21;;;;;;;0.50;0.50;;;;;;;;;;5050394;28;20480;-71
2023/09/12 06:55:47;;;;;;;0.20;0.20;;;;;;;;;;5068376;28;20040;-71
2023/09/12 06:58:13;;;;;;;0.20;0.20;;;;;;;;;;5068182;28;20024;-73
2023/09/12 07:00:38;;;;;;;0.85;0.77;;;;;;;;;;5068572;28;20388;-71
2023/09/12 07:03:04;;;;;;;0.20;0.20;;;;;;;;;;5068083;28;20040;-71
2023/09/12 07:05:29;;;;;;;1.23;1.02;;;;;;;;;;5057148;28;20040;-71
2023/09/12 07:07:55;;;;;;;0.30;0.30;;;;;;;;;;5060050;28;20024;-71
2023/09/12 07:10:21;;;;;;;0.30;0.30;;;;;;;;;;5056909;28;20602;-72
2023/09/12 07:12:46;;;;;;;0.20;0.20;;;;;;;;;;5031382;28;20024;-70
2023/09/12 07:15:12;;;;;;;0.45;0.35;;;;;;;;;;5048662;28;20123;-71
2023/09/12 07:17:38;;;;;;;0.20;0.20;;;;;;;;;;5059087;28;20374;-70
2023/09/12 07:20:04;;;;;;;0.20;0.20;;;;;;;;;;5048223;28;20040;-70
2023/09/12 07:22:30;;;;;;;0.20;0.20;;;;;;;;;;5048705;28;20044;-70
2023/09/12 07:24:59;;;;;;;0.20;0.20;;;;;;;;;;5048453;28;20029;-70
2023/09/12 07:27:24;;;;;;;;;;;;;;;;;;5058824;28;20040;-71
2023/09/12 07:29:50;;;;;;;0.25;0.22;;;;;;;;;;5039482;28;19962;-70
2023/09/12 07:32:15;;;;;;;0.30;0.30;;;;;;;;;;5055643;28;20488;-70
2023/09/12 07:34:45;;;;;;;0.30;0.30;;;;;;;;;;5047989;28;20066;-70
2023/09/12 07:37:10;;;;;;;1.33;1.23;;;;;;;;;;5048292;28;20082;-71
2023/09/12 07:39:36;;;;;;;0.20;0.20;;;;;;;;;;5048308;28;20037;-70
2023/09/12 07:42:02;;;;;;;0.20;0.20;;;;;;;;;;5047899;28;20072;-70
2023/09/12 07:44:29;;;;;;;0.40;0.40;;;;;;;;;;5047938;28;20035;-71
2023/09/12 07:46:54;;;;;;;0.30;0.30;;;;;;;;;;5048215;28;20036;-70
2023/09/12 07:49:20;;;;;;;0.20;0.20;;;;;;;;;;5048705;28;20033;-70
2023/09/12 07:51:45;;;;;;;0.45;0.45;;;;;;;;;;5048150;28;20107;-70
2023/09/12 07:54:11;;;;;;;0.82;0.82;;;;;;;;;;5047945;28;20029;-70
2023/09/12 07:56:37;;;;;;;0.20;0.20;;;;;;;;;;5030039;28;20033;-70
2023/09/12 07:59:03;;;;;;;0.30;0.30;;;;;;;;;;5065276;28;20056;-71
2023/09/12 08:01:28;;;;;;;0.25;0.25;;;;;;;;;;5048027;28;20040;-71
2023/09/12 08:03:54;;;;;;;0.30;0.30;;;;;;;;;;5053989;28;20036;-70
2023/09/12 08:06:20;;;;;;;0.30;0.30;;;;;;;;;;5061113;28;20524;-70
2023/09/12 08:08:46;;;;;;;0.30;0.30;;;;;;;;;;5065004;28;20512;-71
2023/09/12 08:11:11;;;;;;;0.40;0.40;;;;;;;;;;5044124;28;20041;-71
2023/09/12 08:13:37;;;;;;;0.30;0.30;;;;;;;;;;5047827;28;20040;-71
2023/09/12 08:16:02;;;;;;;0.40;0.40;;;;;;;;;;5029429;28;20067;-71
2023/09/12 08:18:31;;;;;;;0.30;0.30;;;;;;;;;;5054744;28;20033;-71
2023/09/12 08:20:57;;;;;;;0.60;0.60;;;;;;;;;;5041997;28;20037;-70
2023/09/12 08:23:22;;;;;;;0.43;0.43;;;;;;;;;;5047024;28;20059;-70
2023/09/12 08:25:48;;;;;;;0.75;0.73;;;;;;;;;;5059451;28;20037;-70
2023/09/12 08:28:14;;;;;;;0.30;0.30;;;;;;;;;;5069351;28;20033;-72
2023/09/12 08:30:39;;;;;;;0.30;0.30;;;;;;;;;;5069298;28;20090;-71
2023/09/12 08:33:06;;;;;;;0.40;0.40;;;;;;;;;;5069705;28;20031;-71
2023/09/12 08:35:32;;;;;;;0.30;0.30;;;;;;;;;;5068262;28;20039;-71
2023/09/12 08:37:58;;;;;;;0.32;0.32;;;;;;;;;;5070703;28;20115;-70
2023/09/12 08:40:23;;;;;;;0.30;0.30;;;;;;;;;;5067993;28;20718;-72
2023/09/12 08:42:51;;;;;;;0.38;0.38;;;;;;;;;;5068175;28;20494;-72
2023/09/12 08:45:17;;;;;;;0.90;0.85;;;;;;;;;;5066713;28;20098;-72
2023/09/12 08:47:50;;;;;;;1.08;0.98;;;;;;;;;;5068668;28;20046;-71
2023/09/12 08:50:20;;;;;;;0.38;0.38;;;;;;;;;;5065090;28;20024;-69
2023/09/12 08:52:47;;;;;;;0.30;0.30;;;;;;;;;;5045284;28;20099;-71
2023/09/12 08:55:13;;;;;;;0.40;0.40;;;;;;;;;;5030525;28;20451;-72
2023/09/12 08:57:40;;;;;;;0.30;0.30;;;;;;;;;;5050225;28;20037;-71
2023/09/12 09:00:06;;;;;;;0.30;0.30;;;;;;;;;;5068563;28;20384;-71
2023/09/12 09:02:39;;;;;;;0.40;0.40;;;;;;;;;;5068537;28;20162;-72
2023/09/12 09:05:09;;;;;;;0.30;0.30;;;;;;;;;;5049208;28;20326;-72
2023/09/12 09:07:38;;;;;;;0.30;0.30;;;;;;;;;;5058395;28;20033;-71
2023/09/12 09:10:05;;;;;;;0.68;0.68;;;;;;;;;;5061427;28;20036;-71
2023/09/12 09:12:34;;;;;;;0.55;0.50;;;;;;;;;;5034318;28;20048;-72
2023/09/12 09:15:19;;;;;;;0.63;0.55;;;;;;;;;;5066543;28;20039;-71
2023/09/12 09:17:44;;;;;;;0.40;0.40;;;;;;;;;;5058622;28;20029;-71
2023/09/12 09:20:10;;;;;;;2.13;1.95;;;;;;;;;;5066661;28;20063;-72
2023/09/12 09:22:36;;;;;;;2.13;1.92;;;;;;;;;;5051790;28;20051;-71
2023/09/12 09:25:12;;;;;;;0.60;0.60;;;;;;;;;;5069808;28;20492;-72
2023/09/12 09:27:38;;;;;;;0.90;0.85;;;;;;;;;;5052022;28;20549;-71
2023/09/12 09:30:04;;;;;;;3.70;2.40;;;;;;;;;;5069339;28;20124;-79
2023/09/12 09:32:30;;;;;;;0.80;0.52;;;;;;;;;;5050753;28;20472;-87
2023/09/12 09:34:55;;;;;;;1.25;1.15;;;;;;;;;;5059703;28;20481;-84
2023/09/12 09:37:22;;;;;;;2.53;1.92;;;;;;;;;;5048595;28;20111;-84
2023/09/12 09:39:51;;;;;;;3.13;1.17;;;;;;;;;;5039406;28;20105;-79
2023/09/12 09:42:17;;;;;;;1.25;1.15;;;;;;;;;;5049833;28;20518;-84
2023/09/12 09:44:43;;;;;;;2.70;1.50;;;;;;;;;;5062700;28;20032;-83
2023/09/12 09:47:08;;;;;;;0.73;0.73;;;;;;;;;;5069491;28;20186;-86
2023/09/12 09:49:34;;;;;;;0.50;0.50;;;;;;;;;;5069686;28;20064;-83
2023/09/12 09:52:02;;;;;;;0.47;0.47;;;;;;;;;;5069143;28;20031;-84
2023/09/12 09:54:28;;;;;;;0.90;0.90;;;;;;;;;;5060670;28;20036;-83
2023/09/12 09:56:55;;;;;;;0.40;0.40;;;;;;;;;;5069091;28;20024;-88
2023/09/12 09:59:22;;;;;;;0.90;0.85;;;;;;;;;;5067823;28;20036;-86
2023/09/12 10:01:48;;;;;;;0.60;0.60;;;;;;;;;;5034356;28;20036;-85
2023/09/12 10:04:14;;;;;;;0.43;0.43;;;;;;;;;;5067488;28;20038;-85
2023/09/12 10:06:42;;;;;;;0.50;0.50;;;;;;;;;;5049627;28;20116;-75
2023/09/12 10:09:10;;;;;;;0.50;0.50;;;;;;;;;;5049366;28;20025;-82
2023/09/12 10:11:37;;;;;;;1.95;0.98;;;;;;;;;;5063993;28;20033;-81
2023/09/12 10:14:03;;;;;;;0.40;0.40;;;;;;;;;;5068338;28;20353;-77
2023/09/12 10:16:33;;;;;;;1.02;0.77;;;;;;;;;;5067794;28;20039;-80
2023/09/12 10:19:10;;;;;;;0.60;0.60;;;;;;;;;;5068007;28;20572;-79
2023/09/12 10:21:37;;;;;;;0.47;0.47;;;;;;;;;;5067697;28;20087;-84
2023/09/12 10:24:03;;;;;;;0.68;0.68;;;;;;;;;;5069074;28;20060;-77
2023/09/12 10:26:29;;;;;;;1.10;0.88;;;;;;;;;;5068986;28;20059;-83
2023/09/12 10:28:56;;;;;;;3.88;2.35;;;;;;;;;;5051079;28;20036;-77
2023/09/12 10:31:23;;;;;;;1.65;1.20;;;;;;;;;;5067711;28;20435;-84
2023/09/12 10:33:49;;;;;;;0.40;0.40;;;;;;;;;;5034526;28;20463;-87
2023/09/12 10:36:17;;;;;;;0.82;0.65;;;;;;;;;;5068658;28;20103;-86
2023/09/12 10:38:44;;;;;;;0.60;0.60;;;;;;;;;;5069009;28;20024;-81
2023/09/12 10:41:14;;;;;;;1.67;1.13;;;;;;;;;;5068889;28;20040;-83
2023/09/12 10:43:40;;;;;;;0.45;0.45;;;;;;;;;;5049722;28;20033;-84
2023/09/12 10:46:06;;;;;;;1.27;1.17;;;;;;;;;;5069465;28;20032;-87
2023/09/12 10:48:32;;;;;;;1.35;1.05;;;;;;;;;;5069479;28;20021;-88
2023/09/12 10:51:00;;;;;;;0.60;0.60;;;;;;;;;;5068898;28;20042;-80
2023/09/12 10:53:28;;;;;;;0.75;0.75;;;;;;;;;;5069059;28;20028;-86
2023/09/12 10:56:00;;;;;;;2.35;1.90;;;;;;;;;;5068368;28;20085;-85
2023/09/12 10:58:26;;;;;;;1.65;1.02;;;;;;;;;;5068764;28;20111;-85
2023/09/12 11:01:12;;;;;;;0.65;0.60;;;;;;;;;;5069381;28;20024;-82
2023/09/12 11:03:38;;;;;;;1.15;0.93;;;;;;;;;;5068558;28;20039;-87
2023/09/12 11:06:05;;;;;;;0.65;0.65;;;;;;;;;;5068671;28;20044;-89
2023/09/12 11:08:35;;;;;;;1.45;1.35;;;;;;;;;;5048921;28;20098;-80
2023/09/12 11:11:20;;;;;;;0.70;0.70;;;;;;;;;;5062656;28;20115;-80
2023/09/12 11:13:46;;;;;;;1.48;1.10;;;;;;;;;;5048228;28;20389;-86
2023/09/12 11:16:17;;;;;;;1.05;1.02;;;;;;;;;;5067924;28;20024;-83
2023/09/12 11:19:02;;;;;;;0.55;0.55;;;;;;;;;;5067710;28;20041;-83
2023/09/12 11:21:33;;;;;;;0.70;0.70;;;;;;;;;;5065096;28;20538;-80
2023/09/12 11:23:59;;;;;;;1.73;1.15;;;;;;;;;;5077535;28;20041;-80
2023/09/12 11:26:25;;;;;;;0.68;0.68;;;;;;;;;;5078827;28;20044;-82
2023/09/12 11:28:50;;;;;;;1.38;1.00;;;;;;;;;;5076509;28;20032;-87
2023/09/12 11:31:28;;;;;;;0.75;0.75;;;;;;;;;;5058730;28;20025;-85
2023/09/12 11:33:54;;;;;;;0.80;0.80;;;;;;;;;;5057056;28;20609;-81
2023/09/12 11:36:19;;;;;;;0.80;0.80;;;;;;;;;;5056715;28;20063;-78
2023/09/12 11:38:49;;;;;;;1.80;1.08;;;;;;;;;;5060824;28;20029;-83
2023/09/12 11:41:34;;;;;;;1.40;1.13;;;;;;;;;;5031862;28;20040;-86
2023/09/12 11:44:02;;;;;;;1.50;1.13;;;;;;;;;;5067616;28;20035;-85
2023/09/12 11:46:29;;;;;;;0.35;0.35;;;;;;;;;;5043549;28;20044;-79
2023/09/12 11:48:56;;;;;;;2.80;1.50;;;;;;;;;;5063954;28;20484;-79
2023/09/12 11:51:26;;;;;;;0.40;0.40;;;;;;;;;;5051829;28;20079;-81
2023/09/12 11:53:53;;;;;;;1.98;1.88;;;;;;;;;;5063614;28;20036;-79
2023/09/12 11:56:18;;;;;;;1.88;0.57;;;;;;;;;;5064453;28;20059;-77
2023/09/12 11:58:44;;;;;;;2.17;1.38;;;;;;;;;;5029606;28;20361;-77
2023/09/12 12:01:12;;;;;;;0.85;0.77;;;;;;;;;;5061499;28;20032;-80
2023/09/12 12:03:38;;;;;;;0.75;0.60;;;;;;;;;;5047185;28;20036;-80
2023/09/12 12:06:04;;;;;;;1.05;0.95;;;;;;;;;;5050880;28;20029;-81
2023/09/12 12:08:30;;;;;;;2.30;1.60;;;;;;;;;;5060460;28;20028;-84
2023/09/12 12:10:58;;;;;;;1.40;1.23;;;;;;;;;;5070215;28;20037;-82
2023/09/12 12:13:24;;;;;;;1.50;0.75;;;;;;;;;;5049459;28;20036;-80
2023/09/12 12:15:49;;;;;;;3.95;1.35;;;;;;;;;;5050359;28;20380;-82
2023/09/12 12:18:15;;;;;;;1.23;1.10;;;;;;;;;;5032442;28;20068;-82
2023/09/12 12:20:41;;;;;;;0.60;0.60;;;;;;;;;;5052186;28;20032;-82
2023/09/12 12:23:07;;;;;;;0.82;0.82;;;;;;;;;;5068186;28;20052;-82
2023/09/12 12:25:34;;;;;;;1.05;0.90;;;;;;;;;;5047842;28;20481;-83
2023/09/12 12:28:00;;;;;;;2.85;1.58;;;;;;;;;;5069867;28;20064;-83
2023/09/12 12:30:26;;;;;;;0.57;0.57;;;;;;;;;;5070345;28;20033;-81
2023/09/12 12:32:52;;;;;;;0.55;0.55;;;;;;;;;;5070850;28;20035;-76
2023/09/12 12:35:21;;;;;;;0.90;0.88;;;;;;;;;;5070944;28;20064;-79
2023/09/12 12:37:50;;;;;;;1.20;1.02;;;;;;;;;;5070479;28;20032;-84
2023/09/12 12:40:19;;;;;;;2.80;1.70;;;;;;;;;;5070974;28;20036;-77
2023/09/12 12:42:48;;;;;;;2.05;1.65;;;;;;;;;;5071153;28;20075;-76
2023/09/12 12:45:14;;;;;;;1.63;1.35;;;;;;;;;;5052928;28;20047;-83
2023/09/12 12:47:40;;;;;;;0.75;0.70;;;;;;;;;;5070640;28;20038;-82
2023/09/12 12:50:13;;;;;;;2.55;1.30;;;;;;;;;;5070471;28;20153;-84
2023/09/12 12:52:39;;;;;;;1.10;0.98;;;;;;;;;;5066593;28;20447;-77
2023/09/12 12:55:16;;;;;;;1.63;1.13;;;;;;;;;;5070221;28;20031;-85
2023/09/12 12:57:43;;;;;;;1.45;1.23;;;;;;;;;;5071689;28;20044;-85
2023/09/12 13:00:10;;;;;;;1.80;1.38;;;;;;;;;;5070158;28;20435;-80
2023/09/12 13:02:40;;;;;;;2.22;1.38;;;;;;;;;;5051326;28;20090;-77
2023/09/12 13:05:24;;;;;;;1.13;1.02;;;;;;;;;;5067785;28;20033;-76
2023/09/12 13:07:51;;;;;;;0.55;0.55;;;;;;;;;;5068193;28;20146;-79
2023/09/12 13:10:16;;;;;;;1.70;1.30;;;;;;;;;;5067918;28;20082;-77
2023/09/12 13:12:45;;;;;;;1.60;1.27;;;;;;;;;;5066904;28;20036;-79
2023/09/12 13:15:11;;;;;;;1.55;1.15;;;;;;;;;;5068903;28;20032;-77
2023/09/12 13:17:38;;;;;;;1.08;0.90;;;;;;;;;;5055578;28;20028;-75
2023/09/12 13:20:04;;;;;;;4.95;2.05;;;;;;;;;;5029726;28;20037;-76
2023/09/12 13:22:29;;;;;;;2.80;1.95;;;;;;;;;;5029320;28;20086;-72
2023/09/12 13:24:55;;;;;;;0.93;0.75;;;;;;;;;;5034095;28;20089;-77
2023/09/12 13:27:20;;;;;;;3.88;1.80;;;;;;;;;;5067794;28;20090;-75
2023/09/12 13:29:47;;;;;;;1.95;1.35;;;;;;;;;;5065966;28;20039;-76
2023/09/12 13:32:15;;;;;;;1.27;0.98;;;;;;;;;;5047418;28;20383;-73
2023/09/12 13:34:40;;;;;;;1.58;1.25;;;;;;;;;;5047779;28;20560;-78
2023/09/12 13:37:06;;;;;;;0.60;0.60;;;;;;;;;;5066564;28;20028;-78
2023/09/12 13:39:31;;;;;;;1.83;1.40;;;;;;;;;;5060973;28;20472;-77
2023/09/12 13:41:59;;;;;;;2.80;2.22;;;;;;;;;;5064536;28;20032;-78
2023/09/12 13:44:25;;;;;;;2.05;1.55;;;;;;;;;;5049216;28;20025;-74
2023/09/12 13:46:51;;;;;;;1.25;1.15;;;;;;;;;;5066087;28;20829;-75
2023/09/12 13:49:17;;;;;;;1.85;1.35;;;;;;;;;;5067871;28;20036;-77
2023/09/12 13:51:42;;;;;;;1.27;1.00;;;;;;;;;;5059798;28;20025;-75
2023/09/12 13:54:14;;;;;;;2.05;1.70;;;;;;;;;;5063307;28;20093;-77
2023/09/12 13:56:46;;;;;;;1.75;1.38;;;;;;;;;;5032811;28;20036;-76
2023/09/12 13:59:12;;;;;;;0.70;0.70;;;;;;;;;;5040721;28;20078;-76
2023/09/12 14:01:37;;;;;;;2.92;1.65;;;;;;;;;;5061614;28;20029;-75
2023/09/12 14:04:03;;;;;;;1.50;1.40;;;;;;;;;;5066434;28;20047;-75
2023/09/12 14:06:29;;;;;;;2.25;1.55;;;;;;;;;;5066087;28;20032;-74
2023/09/12 14:08:55;;;;;;;1.65;1.35;;;;;;;;;;5067148;28;20047;-72
2023/09/12 14:11:21;;;;;;;0.85;0.68;;;;;;;;;;5064823;28;20463;-75
2023/09/12 14:13:47;;;;;;;1.15;1.05;;;;;;;;;;5067347;28;20094;-74
2023/09/12 14:16:13;;;;;;;0.55;0.55;;;;;;;;;;5063792;28;20036;-78
2023/09/12 14:18:39;;;;;;;2.28;1.35;;;;;;;;;;5066716;28;20025;-75
2023/09/12 14:21:05;;;;;;;2.10;0.55;;;;;;;;;;5062557;28;20553;-76
2023/09/12 14:23:31;;;;;;;0.90;0.68;;;;;;;;;;5052043;28;20041;-74
2023/09/12 14:25:57;;;;;;;2.40;0.82;;;;;;;;;;5055736;28;20028;-75
2023/09/12 14:28:23;;;;;;;4.32;1.40;;;;;;;;;;5069145;28;20032;-77
2023/09/12 14:30:49;;;;;;;1.63;1.00;;;;;;;;;;5069382;28;20033;-77
2023/09/12 14:33:17;;;;;;;1.15;0.95;;;;;;;;;;5069459;28;20032;-77
2023/09/12 14:35:43;;;;;;;2.55;1.73;;;;;;;;;;5068101;28;20086;-74
2023/09/12 14:38:09;;;;;;;2.50;1.13;;;;;;;;;;5059525;28;20081;-75
2023/09/12 14:40:34;;;;;;;2.15;1.55;;;;;;;;;;5051050;28;20104;-75